Bonner Springs, KS

4:23 PM CDT on June 30, 2015 (GMT -0500)
Brittany Heights | | Change Station
CLOSE
Current Station
Personal Weather Station
Location: Shawnee, KS
Elevation: 853 ft
Nearby Weather Stations

Elev 853 ft 39.04 °N, 94.84 °W | Updated 9 minutes ago

Partly Cloudy
Partly Cloudy
95.9 °F
Feels Like 103 °F
N
0.0
Wind Variable Wind from South

Today
High -- | Low -- °F
--% Chance of Precip.
Yesterday
High -- | Low -- °F
Precip. -- in
5:56 AM 8:49 PM
Waxing Gibbous, 98% visible
Pressure 29.89 in
Visibility 6.0 miles
Clouds Clear
Heat Index 103 °F
Dew Point 70 °F
Humidity 44%
Rainfall in
Snow Depth Not available.
UV 9 out of 12
Pollen 5.20 out of 12
Air Quality Not available.
Flu Activity No Activity
METAR KIXD 302053Z 00000KT 6SM HZ CLR 31/18 A2993 RMK AO2 SLP122 T03110178 56012

More Conditions Fewer Conditions

Pressure 29.89 in
Visibility 6.0 miles
Clouds Clear
Heat Index 103 °F
Dew Point 70 °F
Humidity 44%
Rainfall in
Snow Depth Not available.
UV 9 out of 12
Pollen 5.20 out of 12
Air Quality Not available.
Flu Activity No Activity
METAR KIXD 302053Z 00000KT 6SM HZ CLR 31/18 A2993 RMK AO2 SLP122 T03110178 56012

More Conditions Fewer Conditions

10-Day Weather Forecast

×

Almanac

Astronomy

Jun. 30, 2015 Rise Set
Actual Time
Civil Twilight
Nautical Twilight
Astronomical Twilight
Moon
Length of Visible Light
Length of Day
Tomorrow will be .
, % of the Moon is Illuminated

Today's Extremes

State Highs State Lows

Community

WunderPhotos

Upload Photos

1,834,077 photos uploaded!

WunderBlogs® & News

Nearby

Air Quality

  Air Quality AQ Index Pollutant
Not available.

Snow Depth

Station Depth Elevation

Earthquake Activity

City Distance Mag. Time & Date
Minimum magnitude displayed is 2.5.

Coastal Water Temperatures

Place Temperature

Stations

Nearby Weather Stations

Station Location Temp. Windchill Dew Point Humidity Wind Precip. Elev Updated Type